Time;durP1;ratioP1;P1;durP2;ratioP2;P2;SDS_P1;SDS_P2;PMS_P1;PMS_P2;Temp;Humidity;BMP_temperature;BMP_pressure;BME280_temperature;BME280_humidity;BME280_pressure;Samples;Min_cycle;Max_cycle;Signal;HPM_P1;HPM_P2
2021/11/30 00:00:56;;;;;;;7.10;1.70;;;;;;;7.71;66.78;101074.97;5055513;28;20060;-76
2021/11/30 00:03:21;;;;;;;5.95;1.70;;;;;;;7.64;67.06;101062.66;5059578;28;20051;-77
2021/11/30 00:05:47;;;;;;;3.90;1.70;;;;;;;7.58;67.94;101055.59;5042505;28;20136;-77
2021/11/30 00:08:15;;;;;;;5.72;1.73;;;;;;;7.65;68.14;101047.16;5053189;28;20040;-77
2021/11/30 00:10:44;;;;;;;6.90;1.85;;;;;;;7.66;68.49;101043.72;5041074;28;20039;-76
2021/11/30 00:13:19;;;;;;;5.47;2.08;;;;;;;7.68;69.11;101047.22;5041045;28;20251;-77
2021/11/30 00:15:46;;;;;;;5.03;1.58;;;;;;;7.75;69.07;101038.78;5050283;28;20044;-70
2021/11/30 00:18:12;;;;;;;7.45;2.00;;;;;;;7.70;69.71;101029.97;5048170;28;20036;-77
2021/11/30 00:20:39;;;;;;;6.70;1.90;;;;;;;7.72;70.15;101020.53;5050949;28;20567;-79
2021/11/30 00:23:04;;;;;;;7.40;1.90;;;;;;;7.70;71.04;101026.50;5052150;28;20133;-78
2021/11/30 00:25:30;;;;;;;6.20;2.25;;;;;;;7.62;71.94;101010.72;5053471;28;21031;-78
2021/11/30 00:27:55;;;;;;;9.30;2.38;;;;;;;7.70;72.76;101010.94;5044182;28;20040;-77
2021/11/30 00:30:22;;;;;;;7.60;2.25;;;;;;;7.68;73.09;101000.50;5032519;28;20159;-77
2021/11/30 00:32:48;;;;;;;6.93;2.50;;;;;;;7.70;73.95;101001.44;5061365;28;20043;-77
2021/11/30 00:35:14;;;;;;;7.70;2.60;;;;;;;7.75;73.69;100985.97;5032826;28;20036;-77
2021/11/30 00:37:40;;;;;;;8.38;3.10;;;;;;;7.68;74.96;100979.75;5053138;28;20082;-77
2021/11/30 00:40:06;;;;;;;9.20;3.10;;;;;;;7.74;75.20;100977.31;5048190;28;20055;-76
2021/11/30 00:42:32;;;;;;;8.23;3.20;;;;;;;7.83;74.95;100968.03;5047702;28;20040;-76
2021/11/30 00:45:00;;;;;;;8.82;3.40;;;;;;;7.80;75.13;100967.97;5053532;28;20232;-76
2021/11/30 00:47:30;;;;;;;10.32;4.03;;;;;;;7.84;75.55;100970.66;5047343;28;20362;-78
2021/11/30 00:50:00;;;;;;;10.57;4.43;;;;;;;7.88;75.56;100967.31;5047999;28;20501;-76
2021/11/30 00:52:26;;;;;;;13.15;4.32;;;;;;;7.89;75.68;100963.00;5048767;28;20047;-76
2021/11/30 00:54:52;;;;;;;13.27;4.32;;;;;;;7.92;76.17;100963.97;5050947;28;20036;-77
2021/11/30 00:57:19;;;;;;;10.63;4.50;;;;;;;7.86;76.64;100956.03;5048204;28;20523;-76
2021/11/30 00:59:44;;;;;;;10.85;4.18;;;;;;;8.01;76.62;100952.91;5045557;28;20486;-79
2021/11/30 01:02:10;;;;;;;7.38;3.90;;;;;;;8.06;76.42;100949.59;5042475;28;20047;-79
2021/11/30 01:04:35;;;;;;;9.43;3.80;;;;;;;8.08;77.09;100947.03;5054874;28;20036;-78
2021/11/30 01:07:01;;;;;;;7.95;3.53;;;;;;;8.06;77.35;100936.59;5035172;28;20055;-77
2021/11/30 01:09:26;;;;;;;7.70;3.85;;;;;;;8.12;77.57;100933.28;5056752;28;20043;-77
2021/11/30 01:11:53;;;;;;;10.45;4.20;;;;;;;8.19;77.30;100929.13;5051815;28;20063;-78
2021/11/30 01:14:19;;;;;;;10.70;4.20;;;;;;;8.24;77.50;100930.97;5054460;28;20036;-78
2021/11/30 01:16:45;;;;;;;11.25;4.15;;;;;;;8.27;77.63;100919.78;5036294;28;20120;-76
2021/11/30 01:19:11;;;;;;;9.40;4.55;;;;;;;8.34;77.59;100926.91;5057162;28;20048;-77
2021/11/30 01:21:37;;;;;;;11.05;5.00;;;;;;;8.45;77.61;100922.84;5047487;28;20268;-77
2021/11/30 01:24:04;;;;;;;8.23;5.15;;;;;;;8.41;77.95;100924.50;5037709;28;20458;-78
2021/11/30 01:26:29;;;;;;;10.45;6.07;;;;;;;8.43;77.57;100920.22;5036240;28;20136;-78
2021/11/30 01:28:55;;;;;;;9.90;6.10;;;;;;;8.49;77.80;100919.47;5052180;28;20040;-78
2021/11/30 01:31:20;;;;;;;11.35;6.32;;;;;;;8.52;77.88;100912.63;5056597;28;20956;-76
2021/11/30 01:33:46;;;;;;;9.43;6.15;;;;;;;8.55;77.41;100917.00;5045452;28;20393;-78
2021/11/30 01:36:11;;;;;;;10.35;5.68;;;;;;;8.54;78.25;100912.63;5057268;28;20129;-77
2021/11/30 01:38:37;;;;;;;10.45;5.50;;;;;;;8.68;77.50;100921.63;5053342;28;20040;-78
2021/11/30 01:41:04;;;;;;;8.02;4.93;;;;;;;8.72;77.58;100920.84;5054101;28;20107;-78
2021/11/30 01:43:39;;;;;;;8.55;4.25;;;;;;;8.79;77.81;100919.25;5055739;28;20367;-77
2021/11/30 01:46:25;;;;;;;6.18;3.67;;;;;;;8.82;78.05;100911.53;5027726;28;21607;-77
2021/11/30 01:49:18;;;;;;;6.88;3.55;;;;;;;8.90;77.94;100915.19;5051613;28;20091;-78
2021/11/30 01:51:43;;;;;;;5.15;3.30;;;;;;;8.98;77.68;100908.38;5044176;28;20024;-78
2021/11/30 01:54:09;;;;;;;5.88;2.83;;;;;;;8.98;78.41;100898.00;5034411;28;20126;-78
2021/11/30 01:56:34;;;;;;;8.07;2.75;;;;;;;9.09;78.08;100887.81;5048866;28;20537;-79
2021/11/30 01:59:00;;;;;;;5.75;3.00;;;;;;;9.17;78.71;100884.50;5040833;28;20032;-78
2021/11/30 02:01:25;;;;;;;6.75;3.10;;;;;;;9.26;78.38;100889.91;5028649;28;20040;-79
2021/11/30 02:03:50;;;;;;;7.05;2.95;;;;;;;9.26;78.28;100884.69;5044108;28;20028;-76
2021/11/30 02:06:16;;;;;;;9.20;3.13;;;;;;;9.29;78.75;100884.75;5045140;28;20538;-76
2021/11/30 02:08:41;;;;;;;8.50;3.58;;;;;;;9.35;78.88;100884.84;5053023;28;20040;-78
2021/11/30 02:11:07;;;;;;;8.82;3.50;;;;;;;9.42;78.63;100880.63;5056612;28;20051;-77
2021/11/30 02:13:33;;;;;;;9.25;3.70;;;;;;;9.53;78.40;100878.22;5055731;28;20451;-77
2021/11/30 02:16:00;;;;;;;8.48;3.67;;;;;;;9.46;78.64;100872.03;5024982;28;20032;-78
2021/11/30 02:18:28;;;;;;;9.88;4.00;;;;;;;9.45;78.59;100874.63;5043846;28;20036;-75
2021/11/30 02:20:57;;;;;;;10.43;4.03;;;;;;;9.51;78.57;100882.53;5038733;28;20113;-76
2021/11/30 02:25:56;;;;;;;8.35;3.67;;;;;;;9.56;78.47;100857.47;5038686;28;20062;-76
2021/11/30 02:28:21;;;;;;;8.05;3.50;;;;;;;9.60;78.66;100859.25;5058700;28;20499;-76
2021/11/30 02:30:47;;;;;;;10.07;3.58;;;;;;;9.61;78.54;100845.41;5030595;28;20043;-74
2021/11/30 02:33:12;;;;;;;7.68;3.17;;;;;;;9.64;78.32;100841.09;5057353;28;20040;-77
2021/11/30 02:35:37;;;;;;;8.43;3.30;;;;;;;9.59;79.10;100853.19;5042702;28;20036;-80
2021/11/30 02:38:08;;;;;;;9.80;3.65;;;;;;;9.66;78.75;100841.13;5034067;28;21283;-79
2021/11/30 02:40:35;;;;;;;8.00;3.40;;;;;;;9.67;78.52;100837.69;5038185;28;20886;-78
2021/11/30 02:43:01;;;;;;;13.88;3.35;;;;;;;9.81;78.11;100848.34;5050757;28;20263;-79
2021/11/30 02:45:26;;;;;;;10.23;3.20;;;;;;;9.65;78.53;100837.66;5058792;28;20514;-78
2021/11/30 02:47:51;;;;;;;9.68;3.38;;;;;;;9.71;78.66;100829.94;5038137;28;20024;-78
2021/11/30 02:50:17;;;;;;;8.65;3.35;;;;;;;9.62;78.97;100835.03;5057204;28;20067;-77
2021/11/30 02:52:42;;;;;;;11.13;3.22;;;;;;;9.77;78.40;100824.84;5038066;28;20042;-79
2021/11/30 02:55:08;;;;;;;10.35;3.20;;;;;;;9.73;78.40;100828.25;5049049;28;20325;-79
2021/11/30 02:57:33;;;;;;;11.30;3.00;;;;;;;9.75;78.72;100825.69;5061547;28;20125;-78
2021/11/30 02:59:59;;;;;;;7.07;3.10;;;;;;;9.72;78.89;100821.28;5043575;28;20367;-77
2021/11/30 03:02:26;;;;;;;12.73;3.17;;;;;;;9.76;78.85;100825.69;5043223;28;20166;-78
2021/11/30 03:04:55;;;;;;;8.02;2.88;;;;;;;9.88;78.25;100817.19;5054039;28;20181;-78
2021/11/30 03:07:30;;;;;;;8.48;2.58;;;;;;;9.89;78.08;100815.47;5057535;28;20056;-78
2021/11/30 03:09:56;;;;;;;8.00;2.60;;;;;;;9.73;78.97;100811.75;5041736;28;20205;-77
2021/11/30 03:12:23;;;;;;;9.77;2.50;;;;;;;9.82;78.57;100811.88;5055039;28;20047;-78
2021/11/30 03:14:49;;;;;;;8.68;2.67;;;;;;;9.88;78.44;100796.34;5056265;28;20040;-78
2021/11/30 03:17:16;;;;;;;6.95;2.30;;;;;;;9.97;78.18;100795.63;5034303;28;20044;-78
2021/11/30 03:19:42;;;;;;;8.40;2.30;;;;;;;9.84;78.64;100798.91;5038494;28;20457;-77
2021/11/30 03:22:07;;;;;;;5.78;2.05;;;;;;;9.99;78.62;100804.34;5044893;28;20052;-76
2021/11/30 03:24:33;;;;;;;5.70;2.05;;;;;;;9.76;79.59;100790.97;5051916;28;20036;-78
2021/11/30 03:26:59;;;;;;;5.60;1.90;;;;;;;9.95;78.67;100790.38;5035190;28;20036;-75
2021/11/30 03:29:24;;;;;;;5.53;2.08;;;;;;;10.13;78.18;100787.16;5035455;28;20079;-76
2021/11/30 03:31:58;;;;;;;5.43;2.13;;;;;;;10.00;78.91;100786.13;5036925;28;20304;-76
2021/11/30 03:34:24;;;;;;;4.78;2.20;;;;;;;10.15;78.69;100783.75;5041519;28;20056;-77
2021/11/30 03:36:52;;;;;;;9.10;2.22;;;;;;;10.15;78.61;100781.13;5049481;28;20553;-77
2021/11/30 03:39:21;;;;;;;12.07;2.60;;;;;;;10.06;78.87;100777.53;5044029;28;20036;-76
2021/11/30 03:41:48;;;;;;;10.85;3.08;;;;;;;10.08;79.25;100778.41;5044410;28;20056;-74
2021/11/30 03:44:13;;;;;;;8.52;3.22;;;;;;;10.05;79.04;100776.66;5039928;28;20036;-77
2021/11/30 03:46:39;;;;;;;6.68;3.45;;;;;;;10.07;79.20;100774.06;5033032;28;20096;-76
2021/11/30 03:49:06;;;;;;;8.80;3.70;;;;;;;10.06;79.30;100773.19;5056744;28;20484;-76
2021/11/30 03:51:32;;;;;;;7.50;4.00;;;;;;;10.18;78.84;100779.47;5049957;28;20490;-76
2021/11/30 03:53:57;;;;;;;6.68;3.65;;;;;;;10.24;78.60;100784.75;5049415;28;20198;-77
2021/11/30 03:56:23;;;;;;;9.68;3.80;;;;;;;10.30;78.22;100777.03;5052374;28;20051;-77
2021/11/30 03:58:48;;;;;;;7.07;3.90;;;;;;;10.29;78.45;100778.75;5042338;28;20067;-77
2021/11/30 04:01:13;;;;;;;13.00;5.18;;;;;;;10.34;78.45;100779.69;5054672;28;20449;-76
2021/11/30 04:03:42;;;;;;;14.68;5.35;;;;;;;10.34;78.64;100773.59;5051635;28;20143;-75
2021/11/30 04:06:07;;;;;;;13.38;4.85;;;;;;;10.31;78.52;100778.75;5047719;28;20036;-75
2021/11/30 04:08:34;;;;;;;13.82;4.90;;;;;;;10.34;78.60;100776.19;5054080;28;20047;-76
2021/11/30 04:11:00;;;;;;;17.33;5.22;;;;;;;10.34;78.67;100781.41;5059491;28;20565;-76
2021/11/30 04:13:25;;;;;;;12.02;4.88;;;;;;;10.46;78.28;100776.34;5034596;28;20048;-76
2021/11/30 04:15:51;;;;;;;13.18;5.20;;;;;;;10.41;78.78;100765.88;5040699;28;20059;-77
2021/11/30 04:18:16;;;;;;;12.55;5.13;;;;;;;10.49;78.51;100768.59;5041612;28;20091;-77
2021/11/30 04:20:41;;;;;;;14.27;4.90;;;;;;;10.49;78.31;100765.97;5053373;28;20044;-77
2021/11/30 04:23:07;;;;;;;15.68;5.28;;;;;;;10.50;78.57;100765.97;5047449;28;20130;-76
2021/11/30 04:25:32;;;;;;;12.07;5.03;;;;;;;10.52;78.47;100758.19;5059094;28;20067;-77
2021/11/30 04:27:58;;;;;;;16.25;5.57;;;;;;;10.46;78.82;100750.28;5047914;28;20120;-77
2021/11/30 04:30:23;;;;;;;15.30;5.63;;;;;;;10.54;78.45;100761.69;5051882;28;20048;-75
2021/11/30 04:32:49;;;;;;;15.32;5.65;;;;;;;10.49;79.11;100755.56;5016868;28;20040;-75
2021/11/30 04:35:14;;;;;;;14.15;5.32;;;;;;;10.58;78.64;100753.91;5058638;28;20114;-75
2021/11/30 04:37:41;;;;;;;15.02;5.50;;;;;;;10.47;79.02;100744.22;5028498;28;20497;-76
2021/11/30 04:40:08;;;;;;;14.48;5.38;;;;;;;10.62;78.68;100746.09;5048050;28;20028;-76
2021/11/30 04:42:34;;;;;;;12.93;4.90;;;;;;;10.55;78.98;100748.66;5056729;28;20035;-77
2021/11/30 04:45:13;;;;;;;15.57;5.00;;;;;;;10.56;78.68;100745.19;5054205;28;20097;-76
2021/11/30 04:47:41;;;;;;;15.45;5.00;;;;;;;10.55;78.83;100740.81;5055994;28;20555;-76
2021/11/30 04:50:16;;;;;;;10.95;4.75;;;;;;;10.61;78.96;100741.78;5049966;28;20027;-76
2021/11/30 04:52:44;;;;;;;8.88;4.20;;;;;;;10.61;78.90;100726.13;5061171;28;20312;-75
2021/11/30 04:55:09;;;;;;;12.70;5.00;;;;;;;10.67;78.65;100732.28;5054700;28;20132;-75
2021/11/30 04:57:34;;;;;;;9.90;4.68;;;;;;;10.67;78.72;100718.38;5054567;28;20064;-75
2021/11/30 05:00:00;;;;;;;16.25;4.85;;;;;;;10.69;78.50;100729.69;5045728;28;20154;-77
2021/11/30 05:02:25;;;;;;;15.40;5.43;;;;;;;10.70;78.43;100723.63;5056334;28;20055;-78
2021/11/30 05:04:50;;;;;;;12.40;4.90;;;;;;;10.68;78.90;100725.31;5051720;28;20040;-77
2021/11/30 05:07:16;;;;;;;17.42;5.20;;;;;;;10.66;78.69;100722.72;5037899;28;20051;-76
2021/11/30 05:09:42;;;;;;;16.40;5.20;;;;;;;10.77;78.48;100725.44;5039465;28;20052;-76
2021/11/30 05:12:09;;;;;;;20.65;5.45;;;;;;;10.63;79.11;100725.28;5049020;28;21364;-77
2021/11/30 05:14:34;;;;;;;18.08;5.43;;;;;;;10.66;78.98;100727.94;5049429;28;21572;-77
2021/11/30 05:16:59;;;;;;;15.15;5.03;;;;;;;10.71;78.97;100715.81;5046668;28;20039;-77
2021/11/30 05:19:25;;;;;;;17.17;5.70;;;;;;;10.78;78.71;100719.38;5058808;28;20515;-76
2021/11/30 05:21:50;;;;;;;16.10;5.45;;;;;;;10.78;78.98;100725.47;5047592;28;20046;-78
2021/11/30 05:24:18;;;;;;;16.90;5.40;;;;;;;10.81;78.86;100715.03;5058724;28;20066;-76
2021/11/30 05:26:44;;;;;;;23.63;6.65;;;;;;;10.84;78.71;100727.25;5055510;28;20036;-77
2021/11/30 05:29:09;;;;;;;18.15;5.93;;;;;;;10.86;78.55;100728.13;5052634;28;20650;-75
2021/11/30 05:31:34;;;;;;;16.58;5.97;;;;;;;10.81;78.51;100729.81;5037308;28;20051;-77
2021/11/30 05:34:00;;;;;;;18.00;5.57;;;;;;;10.77;78.81;100726.31;5046760;28;20997;-79
2021/11/30 05:36:26;;;;;;;16.63;5.45;;;;;;;10.82;78.84;100735.03;5050693;28;20032;-77
2021/11/30 05:38:52;;;;;;;16.23;5.50;;;;;;;10.86;78.87;100728.13;5058638;28;20040;-79
2021/11/30 05:41:17;;;;;;;15.43;5.60;;;;;;;10.83;78.61;100721.16;5048178;28;20049;-77
2021/11/30 05:43:43;;;;;;;16.40;5.70;;;;;;;10.84;78.78;100735.06;5047328;28;20032;-77
2021/11/30 05:46:08;;;;;;;17.02;5.85;;;;;;;10.88;78.63;100732.50;5050555;28;20076;-78
2021/11/30 05:48:34;;;;;;;19.88;5.75;;;;;;;10.93;78.79;100724.72;5049104;28;20551;-77
2021/11/30 05:51:01;;;;;;;23.70;5.82;;;;;;;10.88;78.66;100731.63;5048790;28;20158;-76
2021/11/30 05:53:27;;;;;;;17.63;5.38;;;;;;;10.87;78.88;100737.69;5045977;28;20036;-77
2021/11/30 05:55:55;;;;;;;18.83;5.80;;;;;;;10.96;78.57;100735.19;5042924;28;20087;-78
2021/11/30 05:58:21;;;;;;;17.40;5.63;;;;;;;10.98;78.23;100738.66;5051717;28;20043;-77
2021/11/30 06:00:48;;;;;;;19.42;5.70;;;;;;;10.95;78.29;100739.53;5049714;28;20663;-79
2021/11/30 06:03:27;;;;;;;15.65;5.43;;;;;;;10.87;78.79;100729.88;5058705;28;20078;-78
2021/11/30 06:05:53;;;;;;;19.52;5.60;;;;;;;10.95;78.48;100741.25;5029945;28;20258;-77
2021/11/30 06:08:18;;;;;;;16.00;5.10;;;;;;;10.99;78.33;100737.81;5052486;28;20474;-78
2021/11/30 06:10:43;;;;;;;16.50;5.13;;;;;;;11.04;77.92;100730.06;5035644;28;21448;-75
2021/11/30 06:13:09;;;;;;;17.85;5.13;;;;;;;10.92;78.40;100736.88;5044999;28;20091;-78
2021/11/30 06:15:34;;;;;;;19.15;5.15;;;;;;;10.96;78.26;100728.25;5052059;28;20040;-77
2021/11/30 06:18:00;;;;;;;20.15;5.20;;;;;;;11.07;77.90;100732.66;5047375;28;22076;-77
2021/11/30 06:20:26;;;;;;;14.23;4.72;;;;;;;10.92;78.71;100730.78;5041872;28;20039;-76
2021/11/30 06:22:51;;;;;;;22.55;5.07;;;;;;;10.90;78.57;100727.31;5058826;28;20127;-80
2021/11/30 06:25:16;;;;;;;17.75;4.40;;;;;;;11.07;77.95;100733.53;5062291;28;20112;-78
2021/11/30 06:27:43;;;;;;;18.25;4.60;;;;;;;11.07;78.25;100736.16;5049446;28;20067;-78
2021/11/30 06:30:10;;;;;;;11.68;4.38;;;;;;;11.03;78.14;100729.19;5052700;28;20058;-77
2021/11/30 06:32:35;;;;;;;14.45;4.40;;;;;;;11.11;78.22;100729.22;5059551;28;20396;-77
2021/11/30 06:35:01;;;;;;;17.08;4.68;;;;;;;11.12;77.74;100734.47;5057414;28;20523;-80
2021/11/30 06:37:27;;;;;;;17.42;4.10;;;;;;;11.22;77.79;100748.47;5063245;28;20530;-79
2021/11/30 06:39:53;;;;;;;12.68;3.95;;;;;;;11.16;78.01;100733.63;5028420;28;20128;-76
2021/11/30 06:42:19;;;;;;;18.77;4.18;;;;;;;11.16;77.82;100738.00;5058987;28;20076;-77
2021/11/30 06:44:46;;;;;;;15.40;4.40;;;;;;;11.24;77.62;100744.13;5056647;28;20077;-78
2021/11/30 06:47:11;;;;;;;20.00;3.95;;;;;;;11.30;77.56;100746.78;5051863;28;20035;-77
2021/11/30 06:49:37;;;;;;;19.17;3.92;;;;;;;11.20;77.50;100738.03;5041816;28;20468;-76
2021/11/30 06:52:02;;;;;;;12.65;3.53;;;;;;;11.27;77.65;100734.59;5040445;28;20047;-78
2021/11/30 06:54:30;;;;;;;15.27;3.58;;;;;;;11.34;77.22;100745.97;5045074;28;20461;-78
2021/11/30 06:56:57;;;;;;;13.02;3.58;;;;;;;11.36;77.08;100746.84;5055084;28;20093;-77
2021/11/30 06:59:25;;;;;;;13.80;3.67;;;;;;;11.30;77.02;100758.09;5044930;28;21900;-77
2021/11/30 07:01:51;;;;;;;11.23;3.72;;;;;;;11.32;77.34;100759.00;5046686;28;20856;-78
2021/11/30 07:04:17;;;;;;;16.15;3.63;;;;;;;11.17;77.77;100745.81;5060283;28;20131;-78
2021/11/30 07:12:09;;;;;;;14.73;3.53;;;;;;;11.33;77.39;100739.88;5036696;28;20237;-77
2021/11/30 07:14:34;;;;;;;12.43;3.47;;;;;;;11.38;77.49;100735.56;5058447;28;20500;-78
2021/11/30 07:16:59;;;;;;;17.45;3.50;;;;;;;11.34;77.66;100741.59;5051156;28;20097;-77
2021/11/30 07:19:25;;;;;;;12.20;3.53;;;;;;;11.38;77.73;100742.50;5055832;28;20471;-77
2021/11/30 07:21:51;;;;;;;11.05;3.13;;;;;;;11.27;78.06;100744.16;5044531;28;20036;-77
2021/11/30 07:24:16;;;;;;;11.82;3.63;;;;;;;11.34;77.80;100746.81;5063084;28;20106;-76
2021/11/30 07:26:41;;;;;;;14.50;3.25;;;;;;;11.44;77.28;100753.00;5052460;28;20054;-78
2021/11/30 07:29:07;;;;;;;16.92;3.35;;;;;;;11.36;77.83;100752.94;5043635;28;20459;-77
2021/11/30 07:31:32;;;;;;;12.18;3.42;;;;;;;11.45;77.52;100761.72;5053059;28;20421;-77
2021/11/30 07:34:00;;;;;;;18.85;3.50;;;;;;;11.40;77.69;100759.91;5049692;28;20043;-76
2021/11/30 07:36:26;;;;;;;11.80;3.55;;;;;;;11.43;77.59;100763.44;5045749;28;20044;-76
2021/11/30 07:38:51;;;;;;;16.38;3.70;;;;;;;11.50;77.60;100773.94;5052812;28;20296;-76
2021/11/30 07:41:17;;;;;;;11.73;3.20;;;;;;;11.49;77.65;100764.34;5037027;28;20568;-78
2021/11/30 07:43:43;;;;;;;17.17;3.35;;;;;;;11.46;77.71;100760.84;5047146;28;20044;-77
2021/11/30 07:46:08;;;;;;;14.90;3.53;;;;;;;11.57;77.66;100772.25;5043333;28;20055;-78
2021/11/30 07:48:34;;;;;;;14.50;3.40;;;;;;;11.42;77.47;100762.53;5051650;28;20036;-75
2021/11/30 07:51:02;;;;;;;15.82;3.80;;;;;;;11.51;77.73;100777.41;5038099;28;20036;-78
2021/11/30 07:53:28;;;;;;;9.60;3.40;;;;;;;11.51;77.82;100762.63;5050923;28;20046;-75
2021/11/30 07:55:54;;;;;;;11.85;3.70;;;;;;;11.51;78.17;100765.25;5029959;28;20039;-76
2021/11/30 07:58:20;;;;;;;12.85;3.65;;;;;;;11.58;77.55;100769.66;5031341;28;20185;-76
2021/11/30 08:00:47;;;;;;;14.95;3.53;;;;;;;11.57;77.34;100765.28;5046119;28;20408;-75
2021/11/30 08:03:12;;;;;;;15.07;3.88;;;;;;;11.52;77.75;100772.22;5032935;28;20096;-75
2021/11/30 08:05:38;;;;;;;13.05;3.85;;;;;;;11.50;77.62;100760.88;5051267;28;22409;-75
2021/11/30 08:08:03;;;;;;;11.88;3.38;;;;;;;11.54;78.05;100770.47;5050485;28;20459;-78
2021/11/30 08:10:29;;;;;;;15.88;3.88;;;;;;;11.61;77.78;100767.06;5039878;28;20047;-77
2021/11/30 08:12:55;;;;;;;19.15;4.07;;;;;;;11.59;77.56;100776.59;5050663;28;20048;-75
2021/11/30 08:15:21;;;;;;;13.30;3.50;;;;;;;11.66;77.29;100770.56;5042236;28;20472;-75
2021/11/30 08:17:46;;;;;;;18.02;4.10;;;;;;;11.67;77.71;100776.66;5001590;28;20528;-74
2021/11/30 08:20:12;;;;;;;13.55;3.78;;;;;;;11.68;77.69;100773.19;5052156;28;20668;-76
2021/11/30 08:22:41;;;;;;;16.05;3.88;;;;;;;11.64;77.52;100776.66;5041173;28;20389;-77
2021/11/30 08:25:08;;;;;;;18.15;3.60;;;;;;;11.59;77.67;100778.34;5033843;28;20051;-77
2021/11/30 08:27:33;;;;;;;12.73;3.50;;;;;;;11.64;77.43;100771.44;5050550;28;20731;-76
2021/11/30 08:29:59;;;;;;;12.68;3.40;;;;;;;11.58;77.29;100774.00;5039968;28;20355;-76
2021/11/30 08:32:25;;;;;;;11.85;3.33;;;;;;;11.60;77.75;100764.44;5027907;28;20691;-73
2021/11/30 08:34:52;;;;;;;10.30;3.20;;;;;;;11.62;77.67;100776.63;5026593;28;20040;-75
2021/11/30 08:37:19;;;;;;;18.17;3.45;;;;;;;11.72;77.00;100775.84;5044280;28;20132;-73
2021/11/30 08:39:47;;;;;;;14.98;3.65;;;;;;;11.73;77.00;100777.63;5034879;28;20044;-74
2021/11/30 08:42:13;;;;;;;15.10;3.53;;;;;;;11.75;76.95;100778.53;5048374;28;20488;-73
2021/11/30 08:44:39;;;;;;;16.08;3.60;;;;;;;11.68;76.86;100775.81;5021161;28;20040;-74
2021/11/30 08:47:07;;;;;;;16.92;3.30;;;;;;;11.69;77.33;100775.81;5046882;28;20507;-74
2021/11/30 08:49:32;;;;;;;14.25;3.28;;;;;;;11.76;76.70;100777.66;5035673;28;20047;-74
2021/11/30 08:51:59;;;;;;;10.10;3.20;;;;;;;11.83;76.56;100778.56;5040379;28;20031;-74
2021/11/30 08:54:26;;;;;;;14.30;3.10;;;;;;;11.82;76.67;100775.94;5045693;28;20423;-75
2021/11/30 08:56:51;;;;;;;14.63;3.30;;;;;;;11.84;76.52;100788.13;5029966;28;20036;-76
2021/11/30 08:59:16;;;;;;;12.02;3.40;;;;;;;11.89;76.21;100782.97;5047613;28;20039;-75
2021/11/30 09:01:43;;;;;;;14.55;3.42;;;;;;;11.84;76.50;100785.53;5037794;28;20532;-75
2021/11/30 09:04:09;;;;;;;9.02;3.05;;;;;;;11.89;76.46;100799.53;5047189;28;20221;-78
2021/11/30 09:06:34;;;;;;;12.73;3.70;;;;;;;11.78;77.04;100801.16;5037285;28;20139;-77
2021/11/30 09:08:59;;;;;;;12.02;3.00;;;;;;;11.86;76.50;100801.22;5050012;28;20040;-75
2021/11/30 09:11:25;;;;;;;16.35;3.10;;;;;;;11.92;76.32;100796.91;5054753;28;20032;-76
2021/11/30 09:13:53;;;;;;;12.68;3.05;;;;;;;11.99;76.16;100797.81;5034897;28;20642;-76
2021/11/30 09:16:21;;;;;;;11.52;3.00;;;;;;;11.98;75.78;100794.34;5036762;28;20524;-76
2021/11/30 09:18:46;;;;;;;14.90;3.42;;;;;;;11.95;75.95;100793.44;5043099;28;20253;-75
2021/11/30 09:21:12;;;;;;;9.80;3.10;;;;;;;12.02;76.24;100803.06;5021351;28;20123;-75
2021/11/30 09:23:38;;;;;;;10.43;2.95;;;;;;;12.00;76.08;100804.81;5033198;28;20037;-77
2021/11/30 09:26:03;;;;;;;12.98;3.03;;;;;;;12.04;76.13;100810.06;5042039;28;20548;-75
2021/11/30 09:28:29;;;;;;;11.82;2.92;;;;;;;12.02;76.06;100803.94;5048791;28;20067;-75
2021/11/30 09:30:54;;;;;;;14.95;3.55;;;;;;;12.05;76.30;100805.69;5036113;28;20043;-76
2021/11/30 09:33:19;;;;;;;12.82;3.40;;;;;;;12.15;75.56;100810.09;5028905;28;20469;-75
2021/11/30 09:35:45;;;;;;;8.15;3.00;;;;;;;12.27;75.26;100804.94;5030320;28;20043;-75
2021/11/30 09:38:11;;;;;;;16.60;3.35;;;;;;;12.19;75.33;100809.28;5038523;28;20046;-76
2021/11/30 09:40:37;;;;;;;11.02;3.08;;;;;;;12.28;75.22;100809.31;5043354;28;20040;-75
2021/11/30 09:43:03;;;;;;;12.40;3.60;;;;;;;12.28;75.33;100801.47;5048023;28;20115;-76
2021/11/30 09:45:32;;;;;;;14.02;3.45;;;;;;;12.28;75.57;100813.66;5049308;28;20189;-76
2021/11/30 09:47:58;;;;;;;14.88;3.53;;;;;;;12.30;76.00;100811.94;5037699;28;20040;-75
2021/11/30 09:50:23;;;;;;;11.25;3.40;;;;;;;12.36;76.00;100812.84;5029412;28;20036;-75
2021/11/30 09:52:53;;;;;;;16.60;3.53;;;;;;;12.37;75.88;100829.41;5056238;28;20074;-75
2021/11/30 09:55:21;;;;;;;10.68;3.28;;;;;;;12.41;75.74;100816.38;5043516;28;20051;-75
2021/11/30 09:57:47;;;;;;;11.52;3.08;;;;;;;12.41;75.46;100811.13;5024747;28;20044;-74
2021/11/30 10:00:13;;;;;;;11.15;3.42;;;;;;;12.35;75.37;100821.56;5048517;28;20093;-78
2021/11/30 10:02:39;;;;;;;9.40;2.90;;;;;;;12.43;75.27;100824.22;5045552;28;20123;-76
2021/11/30 10:05:05;;;;;;;11.68;3.10;;;;;;;12.36;75.84;100820.69;5045009;28;20065;-75
2021/11/30 10:07:43;;;;;;;12.52;3.10;;;;;;;12.49;75.70;100819.03;5048105;28;20059;-74
2021/11/30 10:10:20;;;;;;;14.10;3.10;;;;;;;12.46;75.77;100812.03;5022383;28;20353;-75
2021/11/30 10:13:07;;;;;;;14.10;4.75;;;;;;;12.49;75.37;100811.19;5054420;28;20518;-78
2021/11/30 10:15:48;;;;;;;14.80;4.05;;;;;;;12.37;75.86;100824.19;5042943;28;20392;-75
2021/11/30 10:18:18;;;;;;;13.30;2.97;;;;;;;12.35;76.04;100820.69;5034904;28;20073;-76
2021/11/30 10:20:46;;;;;;;11.93;3.22;;;;;;;12.40;75.66;100811.13;5048418;28;20040;-76
2021/11/30 10:23:11;;;;;;;11.38;2.80;;;;;;;12.49;74.88;100817.28;5051848;28;20047;-76
2021/11/30 10:25:39;;;;;;;15.32;3.17;;;;;;;12.48;75.16;100822.50;5037843;28;20109;-76
2021/11/30 10:28:05;;;;;;;11.13;3.15;;;;;;;12.51;75.14;100825.97;5036642;28;20048;-74
2021/11/30 10:30:34;;;;;;;12.35;3.35;;;;;;;12.49;75.44;100822.50;5053110;28;20101;-75
2021/11/30 10:33:06;;;;;;;8.05;2.80;;;;;;;12.41;75.64;100828.56;5039735;28;20032;-75
2021/11/30 10:35:32;;;;;;;11.55;3.30;;;;;;;12.24;76.06;100828.47;5044733;28;20044;-75
2021/11/30 10:37:59;;;;;;;10.55;3.22;;;;;;;12.35;76.21;100828.53;5044362;28;20070;-74
2021/11/30 10:40:26;;;;;;;10.80;3.47;;;;;;;12.42;76.09;100823.34;5026003;28;20051;-74
2021/11/30 10:42:53;;;;;;;12.00;3.75;;;;;;;12.45;76.10;100814.63;5054387;28;20035;-75
2021/11/30 10:45:29;;;;;;;12.15;3.30;;;;;;;12.48;75.89;100826.00;5053673;28;20075;-74
2021/11/30 10:48:11;;;;;;;13.73;3.35;;;;;;;12.37;76.13;100821.56;5017812;28;20105;-76
2021/11/30 10:50:41;;;;;;;11.23;3.58;;;;;;;12.36;76.35;100817.22;5055020;28;20048;-76
2021/11/30 10:53:18;;;;;;;10.90;3.15;;;;;;;12.40;76.31;100816.34;5056927;28;20048;-75
2021/11/30 10:55:46;;;;;;;14.43;3.40;;;;;;;12.30;76.55;100806.72;5030025;28;20075;-75
2021/11/30 10:58:12;;;;;;;13.75;2.97;;;;;;;12.30;76.81;100810.22;5023356;28;20040;-76
2021/11/30 11:00:37;;;;;;;11.23;3.10;;;;;;;12.34;76.87;100814.56;5041737;28;20563;-76
2021/11/30 11:03:08;;;;;;;10.32;3.10;;;;;;;12.37;76.81;100816.34;5053307;28;20052;-77
2021/11/30 11:05:39;;;;;;;12.98;3.25;;;;;;;12.21;77.25;100810.16;5050733;28;20662;-75
2021/11/30 11:08:05;;;;;;;14.75;3.22;;;;;;;12.37;76.79;100811.13;5044110;28;20060;-76
2021/11/30 11:10:33;;;;;;;14.15;3.40;;;;;;;12.31;76.98;100806.72;5046118;28;20069;-76
2021/11/30 11:13:19;;;;;;;12.45;3.33;;;;;;;12.34;76.70;100814.56;5048388;28;20028;-77
2021/11/30 11:15:45;;;;;;;8.23;2.75;;;;;;;12.19;77.20;100810.16;5050082;28;20036;-75
2021/11/30 11:18:27;;;;;;;11.15;2.88;;;;;;;12.26;77.13;100813.66;5050465;28;20048;-77
2021/11/30 11:21:10;;;;;;;10.43;2.65;;;;;;;12.45;76.85;100804.16;5045459;28;20097;-76
2021/11/30 11:23:41;;;;;;;10.52;3.08;;;;;;;12.41;76.93;100802.41;5041530;28;20036;-76
2021/11/30 11:26:14;;;;;;;11.10;3.10;;;;;;;12.43;76.76;100805.91;5047308;28;21063;-76
2021/11/30 11:28:39;;;;;;;8.77;2.70;;;;;;;12.38;76.80;100794.56;5052437;28;20326;-75